Sjobris — SLXP — position and weather

sailwx.info

Track history (hours):
 
Tides and Currents Weather Stations Pressure Air Temp Water Temp Dewpoint Dewpoint Depression Visibility Wind Speed Wind Dir Waves Ship Positions

Sjobris

Last reported at 2014-Jul-29 16:33 UTC. Time now 2014-Jul-29 16:54 UTC.
Position N 59°19' E 018°10'.

Length 38 m.

Type: Passenger vessel. MMSI: 265522700.

Date/timePositionNaut miles runAvg speedWind from/ knotsBaromVisibWave heightAir tempDewpointWater temp
2014-Jul-29 16:33N 59°19' E 018°10'5 4.1
2014-Jul-29 15:16N 59°23' E 018°18'1 0.1
2014-Jul-29 07:29N 59°23' E 018°19'8 8.5
2014-Jul-29 06:32N 59°20' E 018°05'0 0.0
2014-Jul-29 05:34N 59°20' E 018°05'0 0.0
2014-Jul-29 04:34N 59°20' E 018°05'0 0.0
2014-Jul-29 03:33N 59°20' E 018°05'0 0.0
2014-Jul-29 02:33N 59°20' E 018°05'0 0.0
2014-Jul-29 01:34N 59°20' E 018°05'0 0.0
2014-Jul-29 00:34N 59°20' E 018°05'0 0.0
2014-Jul-28 23:34N 59°20' E 018°05'0 0.0
2014-Jul-28 22:34N 59°20' E 018°05'0 0.0
2014-Jul-28 21:34N 59°20' E 018°05'0 0.0
2014-Jul-28 20:34N 59°20' E 018°05'0 0.0
2014-Jul-28 19:33N 59°20' E 018°05'0 0.4
2014-Jul-28 18:33N 59°19' E 018°05'4 0.4
2014-Jul-28 08:24N 59°20' E 018°12'3 4.0
2014-Jul-28 07:33N 59°19' E 018°06'3 0.2
2014-Jul-27 19:16N 59°20' E 018°11'3 4.6
2014-Jul-27 18:33N 59°19' E 018°05'8 0.7
2014-Jul-27 07:26N 59°23' E 018°19'8 9.1
2014-Jul-27 06:34N 59°20' E 018°05'0 0.0
2014-Jul-27 05:34N 59°20' E 018°05'0 0.0
2014-Jul-27 04:34N 59°20' E 018°05'0 0.0
2014-Jul-27 03:34N 59°20' E 018°05'0 0.0
2014-Jul-27 02:33N 59°20' E 018°05'0 0.0
2014-Jul-27 01:34N 59°20' E 018°05'0 0.0
2014-Jul-27 00:34N 59°20' E 018°05'0 0.0
2014-Jul-26 23:33N 59°20' E 018°05'0 0.0
2014-Jul-26 22:34N 59°20' E 018°05'0 0.0
2014-Jul-26 21:33N 59°20' E 018°05'0 0.0
2014-Jul-26 20:34N 59°20' E 018°05'0 0.0
2014-Jul-26 19:33N 59°20' E 018°05'5 5.0
2014-Jul-26 18:27N 59°22' E 018°15'3 0.2
2014-Jul-26 07:29N 59°23' E 018°19'8 8.7
2014-Jul-26 06:33N 59°20' E 018°05'0 0.0
2014-Jul-26 05:29N 59°20' E 018°05'0 0.0
2014-Jul-26 04:31N 59°20' E 018°05'0 0.0
2014-Jul-26 03:20N 59°20' E 018°05'0 0.0
2014-Jul-26 02:11N 59°20' E 018°05'0 0.0
2014-Jul-25 20:33N 59°20' E 018°05'0 0.0
2014-Jul-25 19:33N 59°20' E 018°05'1 0.8
2014-Jul-25 18:33N 59°19' E 018°06'4 0.4
2014-Jul-25 08:22N 59°20' E 018°13'4 4.5
2014-Jul-25 07:30N 59°19' E 018°05'1 0.0
2014-Jul-24 16:20N 59°20' E 018°05'7 9.5
2014-Jul-24 15:33N 59°23' E 018°18'1 0.1
2014-Jul-24 07:28N 59°23' E 018°19'8 3.8
2014-Jul-24 05:23N 59°20' E 018°05'3 0.3
2014-Jul-23 18:33N 59°20' E 018°11'1 0.1
2014-Jul-23 08:24N 59°20' E 018°12'4 4.2
2014-Jul-23 07:28N 59°19' E 018°05'3 0.2
2014-Jul-22 16:33N 59°20' E 018°11'3 2.3
2014-Jul-22 15:21N 59°22' E 018°15'2 0.3
2014-Jul-22 07:26N 59°23' E 018°18'8 0.6
2014-Jul-21 19:29N 59°20' E 018°05'1 0.5
2014-Jul-21 18:28N 59°19' E 018°05'0 0.0
2014-Jul-20 18:33N 59°20' E 018°05'0 0.0
2014-Jul-19 18:25N 59°19' E 018°05'  
Track history (hours):
 
Tides and Currents Weather Stations Pressure Air Temp Water Temp Dewpoint Dewpoint Depression Visibility Wind Speed Wind Dir Waves Ship Positions

Sjobris

Last reported at 2014-Jul-29 16:33 UTC. Time now 2014-Jul-29 16:54 UTC.
Position N 59°19' E 018°10'.

Length 38 m.

Type: Passenger vessel. MMSI: 265522700.

Date/timePositionNaut miles runAvg speedWind from/ knotsBaromVisibWave heightAir tempDewpointWater temp
2014-Jul-29 16:33N 59°19' E 018°10'5 4.1
2014-Jul-29 15:16N 59°23' E 018°18'1 0.1
2014-Jul-29 07:29N 59°23' E 018°19'8 8.5
2014-Jul-29 06:32N 59°20' E 018°05'0 0.0
2014-Jul-29 05:34N 59°20' E 018°05'0 0.0
2014-Jul-29 04:34N 59°20' E 018°05'0 0.0
2014-Jul-29 03:33N 59°20' E 018°05'0 0.0
2014-Jul-29 02:33N 59°20' E 018°05'0 0.0
2014-Jul-29 01:34N 59°20' E 018°05'0 0.0
2014-Jul-29 00:34N 59°20' E 018°05'0 0.0
2014-Jul-28 23:34N 59°20' E 018°05'0 0.0
2014-Jul-28 22:34N 59°20' E 018°05'0 0.0
2014-Jul-28 21:34N 59°20' E 018°05'0 0.0
2014-Jul-28 20:34N 59°20' E 018°05'0 0.0
2014-Jul-28 19:33N 59°20' E 018°05'0 0.4
2014-Jul-28 18:33N 59°19' E 018°05'4 0.4
2014-Jul-28 08:24N 59°20' E 018°12'3 4.0
2014-Jul-28 07:33N 59°19' E 018°06'3 0.2
2014-Jul-27 19:16N 59°20' E 018°11'3 4.6
2014-Jul-27 18:33N 59°19' E 018°05'8 0.7
2014-Jul-27 07:26N 59°23' E 018°19'8 9.1
2014-Jul-27 06:34N 59°20' E 018°05'0 0.0
2014-Jul-27 05:34N 59°20' E 018°05'0 0.0
2014-Jul-27 04:34N 59°20' E 018°05'0 0.0
2014-Jul-27 03:34N 59°20' E 018°05'0 0.0
2014-Jul-27 02:33N 59°20' E 018°05'0 0.0
2014-Jul-27 01:34N 59°20' E 018°05'0 0.0
2014-Jul-27 00:34N 59°20' E 018°05'0 0.0
2014-Jul-26 23:33N 59°20' E 018°05'0 0.0
2014-Jul-26 22:34N 59°20' E 018°05'0 0.0
2014-Jul-26 21:33N 59°20' E 018°05'0 0.0
2014-Jul-26 20:34N 59°20' E 018°05'0 0.0
2014-Jul-26 19:33N 59°20' E 018°05'5 5.0
2014-Jul-26 18:27N 59°22' E 018°15'3 0.2
2014-Jul-26 07:29N 59°23' E 018°19'8 8.7
2014-Jul-26 06:33N 59°20' E 018°05'0 0.0
2014-Jul-26 05:29N 59°20' E 018°05'0 0.0
2014-Jul-26 04:31N 59°20' E 018°05'0 0.0
2014-Jul-26 03:20N 59°20' E 018°05'0 0.0
2014-Jul-26 02:11N 59°20' E 018°05'0 0.0
2014-Jul-25 20:33N 59°20' E 018°05'0 0.0
2014-Jul-25 19:33N 59°20' E 018°05'1 0.8
2014-Jul-25 18:33N 59°19' E 018°06'4 0.4
2014-Jul-25 08:22N 59°20' E 018°13'4 4.5
2014-Jul-25 07:30N 59°19' E 018°05'1 0.0
2014-Jul-24 16:20N 59°20' E 018°05'7 9.5
2014-Jul-24 15:33N 59°23' E 018°18'1 0.1
2014-Jul-24 07:28N 59°23' E 018°19'8 3.8
2014-Jul-24 05:23N 59°20' E 018°05'3 0.3
2014-Jul-23 18:33N 59°20' E 018°11'1 0.1
2014-Jul-23 08:24N 59°20' E 018°12'4 4.2
2014-Jul-23 07:28N 59°19' E 018°05'3 0.2
2014-Jul-22 16:33N 59°20' E 018°11'3 2.3
2014-Jul-22 15:21N 59°22' E 018°15'2 0.3
2014-Jul-22 07:26N 59°23' E 018°18'8 0.6
2014-Jul-21 19:29N 59°20' E 018°05'1 0.5
2014-Jul-21 18:28N 59°19' E 018°05'0 0.0
2014-Jul-20 18:33N 59°20' E 018°05'0 0.0
2014-Jul-19 18:25N 59°19' E 018°05'  

Dump ship's entire track history